Carlsbad, California
Current Conditions -  °F | °C
As of 2:52 PM on Monday 24 Nov 2014 (Local Time) from KOKB Reporting Station
Clear Clear  
Wind Chill: 72°   Ceiling: Unl
Heat Index: 72°   Visibility: 10mi
Dew Point: 39°   Wind: 9mph
Humidity: 30%   Direction: 270°W
Pressure: 30.15"   Gusts: NA
Location:  33.17°N, 117.33°W
Report Text: KOKB 242252Z AUTO 27008KT 10SM CLR 22/04 A3015 RMK AO2 SLP209 T02220039 $
Loading
Personal Weather Stations






























Interactive Weather Map New forecast layout! Learn more

10-Day Weather Forecast

Advertisements
Track Severe Weather on mobile